sensor_id;sensor_type;location;lat;lon;timestamp;P1;durP1;ratioP1;P2;durP2;ratioP2
9264;SDS011;4669;49.594;10.958;2023-03-14T05:29:42;0.77;;;0.38;;
9264;SDS011;4669;49.594;10.958;2023-03-14T05:35:03;2.03;;;0.52;;
9264;SDS011;4669;49.594;10.958;2023-03-14T05:40:15;3.00;;;1.10;;
9264;SDS011;4669;49.594;10.958;2023-03-14T05:45:32;12.35;;;6.75;;
9264;SDS011;4669;49.594;10.958;2023-03-14T05:50:56;3.20;;;2.83;;
9264;SDS011;4669;49.594;10.958;2023-03-14T05:56:18;4.50;;;0.70;;
9264;SDS011;4669;49.594;10.958;2023-03-14T06:01:38;0.90;;;0.80;;
9264;SDS011;4669;49.594;10.958;2023-03-14T06:06:51;1.33;;;1.05;;
9264;SDS011;4669;49.594;10.958;2023-03-14T06:11:54;1.63;;;1.00;;
9264;SDS011;4669;49.594;10.958;2023-03-14T06:16:58;1.08;;;0.82;;
9264;SDS011;4669;49.594;10.958;2023-03-14T06:22:02;1.05;;;1.00;;
9264;SDS011;4669;49.594;10.958;2023-03-14T06:27:07;2.55;;;0.93;;
9264;SDS011;4669;49.594;10.958;2023-03-14T06:32:10;0.85;;;0.85;;
9264;SDS011;4669;49.594;10.958;2023-03-14T06:37:13;1.77;;;1.10;;
9264;SDS011;4669;49.594;10.958;2023-03-14T06:42:15;1.20;;;1.20;;
9264;SDS011;4669;49.594;10.958;2023-03-14T06:47:20;2.28;;;1.10;;
9264;SDS011;4669;49.594;10.958;2023-03-14T06:52:22;1.60;;;1.20;;
9264;SDS011;4669;49.594;10.958;2023-03-14T06:57:24;3.80;;;2.00;;
9264;SDS011;4669;49.594;10.958;2023-03-14T07:02:27;3.75;;;1.48;;
9264;SDS011;4669;49.594;10.958;2023-03-14T07:07:29;2.35;;;1.58;;
9264;SDS011;4669;49.594;10.958;2023-03-14T07:12:31;1.40;;;0.95;;
9264;SDS011;4669;49.594;10.958;2023-03-14T07:17:35;1.92;;;1.33;;
9264;SDS011;4669;49.594;10.958;2023-03-14T07:22:38;1.95;;;1.13;;
9264;SDS011;4669;49.594;10.958;2023-03-14T07:27:42;0.90;;;0.90;;
9264;SDS011;4669;49.594;10.958;2023-03-14T07:32:46;1.95;;;1.08;;
9264;SDS011;4669;49.594;10.958;2023-03-14T07:37:48;2.47;;;0.82;;
9264;SDS011;4669;49.594;10.958;2023-03-14T07:42:55;1.83;;;0.70;;
9264;SDS011;4669;49.594;10.958;2023-03-14T07:48:02;2.58;;;1.10;;
9264;SDS011;4669;49.594;10.958;2023-03-14T07:53:04;1.90;;;1.38;;
9264;SDS011;4669;49.594;10.958;2023-03-14T07:58:06;2.45;;;0.95;;
9264;SDS011;4669;49.594;10.958;2023-03-14T08:03:10;1.38;;;0.75;;
9264;SDS011;4669;49.594;10.958;2023-03-14T08:08:11;2.20;;;0.90;;
9264;SDS011;4669;49.594;10.958;2023-03-14T08:13:14;5.57;;;1.38;;
9264;SDS011;4669;49.594;10.958;2023-03-14T08:18:17;1.30;;;0.82;;
9264;SDS011;4669;49.594;10.958;2023-03-14T08:23:19;1.98;;;1.10;;
9264;SDS011;4669;49.594;10.958;2023-03-14T08:28:21;2.25;;;0.75;;
9264;SDS011;4669;49.594;10.958;2023-03-14T08:33:25;1.80;;;0.90;;
9264;SDS011;4669;49.594;10.958;2023-03-14T08:38:28;4.35;;;1.40;;
9264;SDS011;4669;49.594;10.958;2023-03-14T08:43:30;2.80;;;0.90;;
9264;SDS011;4669;49.594;10.958;2023-03-14T08:48:33;2.65;;;1.00;;
9264;SDS011;4669;49.594;10.958;2023-03-14T08:53:35;4.05;;;1.27;;
9264;SDS011;4669;49.594;10.958;2023-03-14T08:58:38;1.15;;;0.95;;
9264;SDS011;4669;49.594;10.958;2023-03-14T09:03:42;2.28;;;1.10;;
9264;SDS011;4669;49.594;10.958;2023-03-14T09:08:46;1.95;;;0.93;;
9264;SDS011;4669;49.594;10.958;2023-03-14T09:13:48;1.65;;;0.70;;
9264;SDS011;4669;49.594;10.958;2023-03-14T09:18:51;4.57;;;1.20;;
9264;SDS011;4669;49.594;10.958;2023-03-14T09:23:54;1.55;;;0.85;;
9264;SDS011;4669;49.594;10.958;2023-03-14T09:28:56;5.60;;;0.80;;
9264;SDS011;4669;49.594;10.958;2023-03-14T09:33:59;1.65;;;0.98;;
9264;SDS011;4669;49.594;10.958;2023-03-14T09:39:01;1.70;;;0.70;;
9264;SDS011;4669;49.594;10.958;2023-03-14T09:44:05;4.60;;;1.02;;
9264;SDS011;4669;49.594;10.958;2023-03-14T09:49:14;0.88;;;0.60;;
9264;SDS011;4669;49.594;10.958;2023-03-14T09:54:26;1.50;;;0.60;;
9264;SDS011;4669;49.594;10.958;2023-03-14T09:59:36;1.13;;;0.70;;
9264;SDS011;4669;49.594;10.958;2023-03-14T10:04:41;1.45;;;0.70;;
9264;SDS011;4669;49.594;10.958;2023-03-14T10:09:45;0.52;;;0.52;;
9264;SDS011;4669;49.594;10.958;2023-03-14T10:14:50;1.33;;;0.50;;
9264;SDS011;4669;49.594;10.958;2023-03-14T10:19:55;1.98;;;0.80;;
9264;SDS011;4669;49.594;10.958;2023-03-14T10:25:00;1.48;;;0.82;;
9264;SDS011;4669;49.594;10.958;2023-03-14T10:30:05;2.00;;;0.80;;
9264;SDS011;4669;49.594;10.958;2023-03-14T10:35:19;1.77;;;0.60;;
9264;SDS011;4669;49.594;10.958;2023-03-14T10:40:24;0.93;;;0.50;;
9264;SDS011;4669;49.594;10.958;2023-03-14T10:45:31;3.60;;;0.75;;
9264;SDS011;4669;49.594;10.958;2023-03-14T10:50:37;0.50;;;0.50;;
9264;SDS011;4669;49.594;10.958;2023-03-14T10:55:48;1.30;;;0.60;;
9264;SDS011;4669;49.594;10.958;2023-03-14T11:00:52;0.93;;;0.60;;
9264;SDS011;4669;49.594;10.958;2023-03-14T11:06:04;0.95;;;0.50;;
9264;SDS011;4669;49.594;10.958;2023-03-14T11:11:14;1.55;;;0.60;;
9264;SDS011;4669;49.594;10.958;2023-03-14T11:16:22;2.17;;;0.65;;
9264;SDS011;4669;49.594;10.958;2023-03-14T11:21:33;0.82;;;0.47;;
9264;SDS011;4669;49.594;10.958;2023-03-14T11:26:40;0.70;;;0.43;;
9264;SDS011;4669;49.594;10.958;2023-03-14T11:31:48;2.10;;;0.73;;
9264;SDS011;4669;49.594;10.958;2023-03-14T11:36:53;1.48;;;0.50;;
9264;SDS011;4669;49.594;10.958;2023-03-14T11:41:59;0.60;;;0.60;;
9264;SDS011;4669;49.594;10.958;2023-03-14T11:47:04;0.80;;;0.40;;
9264;SDS011;4669;49.594;10.958;2023-03-14T11:52:14;1.25;;;0.70;;
9264;SDS011;4669;49.594;10.958;2023-03-14T11:57:22;0.60;;;0.60;;
9264;SDS011;4669;49.594;10.958;2023-03-14T12:02:26;0.40;;;0.40;;
9264;SDS011;4669;49.594;10.958;2023-03-14T12:07:37;0.77;;;0.50;;
9264;SDS011;4669;49.594;10.958;2023-03-14T12:12:49;1.50;;;0.50;;
9264;SDS011;4669;49.594;10.958;2023-03-14T12:17:53;3.72;;;1.25;;
9264;SDS011;4669;49.594;10.958;2023-03-14T12:23:01;1.90;;;1.50;;
9264;SDS011;4669;49.594;10.958;2023-03-14T12:28:16;0.50;;;0.50;;
9264;SDS011;4669;49.594;10.958;2023-03-14T12:33:27;2.85;;;0.63;;
9264;SDS011;4669;49.594;10.958;2023-03-14T12:38:39;0.90;;;0.40;;
9264;SDS011;4669;49.594;10.958;2023-03-14T12:43:48;0.30;;;0.30;;
9264;SDS011;4669;49.594;10.958;2023-03-14T12:48:53;0.55;;;0.55;;
9264;SDS011;4669;49.594;10.958;2023-03-14T12:59:29;1.45;;;0.60;;
9264;SDS011;4669;49.594;10.958;2023-03-14T13:04:34;0.90;;;0.30;;
9264;SDS011;4669;49.594;10.958;2023-03-14T13:09:51;0.28;;;0.22;;
9264;SDS011;4669;49.594;10.958;2023-03-14T13:14:56;0.20;;;0.20;;
9264;SDS011;4669;49.594;10.958;2023-03-14T13:20:00;0.82;;;0.60;;
9264;SDS011;4669;49.594;10.958;2023-03-14T13:25:10;1.05;;;0.73;;
9264;SDS011;4669;49.594;10.958;2023-03-14T13:30:14;1.65;;;0.50;;
9264;SDS011;4669;49.594;10.958;2023-03-14T13:35:18;0.50;;;0.50;;
9264;SDS011;4669;49.594;10.958;2023-03-14T13:40:29;0.90;;;0.70;;
9264;SDS011;4669;49.594;10.958;2023-03-14T13:45:41;0.30;;;0.30;;
9264;SDS011;4669;49.594;10.958;2023-03-14T13:50:50;0.47;;;0.47;;
9264;SDS011;4669;49.594;10.958;2023-03-14T13:55:55;0.50;;;0.50;;
9264;SDS011;4669;49.594;10.958;2023-03-14T14:01:04;0.50;;;0.50;;
9264;SDS011;4669;49.594;10.958;2023-03-14T14:06:17;4.82;;;0.70;;
9264;SDS011;4669;49.594;10.958;2023-03-14T14:11:31;0.98;;;0.50;;
9264;SDS011;4669;49.594;10.958;2023-03-14T14:16:43;0.40;;;0.35;;
9264;SDS011;4669;49.594;10.958;2023-03-14T14:21:47;0.52;;;0.40;;
9264;SDS011;4669;49.594;10.958;2023-03-14T14:26:51;0.65;;;0.50;;
9264;SDS011;4669;49.594;10.958;2023-03-14T14:32:09;1.40;;;0.70;;
9264;SDS011;4669;49.594;10.958;2023-03-14T14:37:16;0.88;;;0.40;;
9264;SDS011;4669;49.594;10.958;2023-03-14T14:42:26;1.08;;;0.70;;
9264;SDS011;4669;49.594;10.958;2023-03-14T14:47:30;0.38;;;0.30;;
9264;SDS011;4669;49.594;10.958;2023-03-14T14:52:34;0.73;;;0.40;;
9264;SDS011;4669;49.594;10.958;2023-03-14T14:57:40;0.35;;;0.35;;
9264;SDS011;4669;49.594;10.958;2023-03-14T15:02:51;0.68;;;0.40;;
9264;SDS011;4669;49.594;10.958;2023-03-14T15:07:55;0.32;;;0.32;;
9264;SDS011;4669;49.594;10.958;2023-03-14T15:12:58;0.40;;;0.40;;
9264;SDS011;4669;49.594;10.958;2023-03-14T15:18:00;0.65;;;0.60;;
9264;SDS011;4669;49.594;10.958;2023-03-14T15:23:04;0.30;;;0.30;;
9264;SDS011;4669;49.594;10.958;2023-03-14T15:28:20;0.30;;;0.30;;
9264;SDS011;4669;49.594;10.958;2023-03-14T15:33:24;0.50;;;0.50;;
9264;SDS011;4669;49.594;10.958;2023-03-14T15:38:27;0.52;;;0.52;;
9264;SDS011;4669;49.594;10.958;2023-03-14T15:43:30;1.23;;;1.20;;
9264;SDS011;4669;49.594;10.958;2023-03-14T15:48:32;2.97;;;1.52;;
9264;SDS011;4669;49.594;10.958;2023-03-14T15:53:34;1.50;;;1.40;;
9264;SDS011;4669;49.594;10.958;2023-03-14T15:58:39;1.92;;;1.60;;
9264;SDS011;4669;49.594;10.958;2023-03-14T16:03:42;1.63;;;1.52;;
9264;SDS011;4669;49.594;10.958;2023-03-14T16:08:45;1.77;;;1.67;;
9264;SDS011;4669;49.594;10.958;2023-03-14T16:13:49;5.63;;;3.50;;
9264;SDS011;4669;49.594;10.958;2023-03-14T16:18:51;1.88;;;1.20;;
9264;SDS011;4669;49.594;10.958;2023-03-14T16:23:53;2.25;;;1.33;;
9264;SDS011;4669;49.594;10.958;2023-03-14T16:28:56;1.30;;;1.20;;
9264;SDS011;4669;49.594;10.958;2023-03-14T16:34:00;1.85;;;1.75;;
9264;SDS011;4669;49.594;10.958;2023-03-14T16:39:03;2.33;;;1.67;;
9264;SDS011;4669;49.594;10.958;2023-03-14T16:44:07;2.28;;;1.50;;
9264;SDS011;4669;49.594;10.958;2023-03-14T16:49:09;2.80;;;1.33;;
9264;SDS011;4669;49.594;10.958;2023-03-14T16:54:11;1.85;;;1.30;;
9264;SDS011;4669;49.594;10.958;2023-03-14T16:59:14;3.38;;;1.40;;
9264;SDS011;4669;49.594;10.958;2023-03-14T17:04:16;1.63;;;1.10;;
9264;SDS011;4669;49.594;10.958;2023-03-14T17:09:18;3.72;;;1.35;;
9264;SDS011;4669;49.594;10.958;2023-03-14T17:14:22;2.15;;;1.50;;
9264;SDS011;4669;49.594;10.958;2023-03-14T17:19:25;0.95;;;0.70;;
9264;SDS011;4669;49.594;10.958;2023-03-14T17:24:27;0.60;;;0.60;;
9264;SDS011;4669;49.594;10.958;2023-03-14T17:29:30;0.52;;;0.50;;
9264;SDS011;4669;49.594;10.958;2023-03-14T17:34:32;0.50;;;0.50;;
9264;SDS011;4669;49.594;10.958;2023-03-14T17:39:34;0.90;;;0.60;;
9264;SDS011;4669;49.594;10.958;2023-03-14T17:44:38;1.45;;;0.90;;
9264;SDS011;4669;49.594;10.958;2023-03-14T17:49:41;0.88;;;0.88;;
9264;SDS011;4669;49.594;10.958;2023-03-14T17:54:43;1.25;;;1.10;;
9264;SDS011;4669;49.594;10.958;2023-03-14T17:59:46;2.92;;;1.73;;
9264;SDS011;4669;49.594;10.958;2023-03-14T18:04:48;3.53;;;1.58;;
9264;SDS011;4669;49.594;10.958;2023-03-14T18:09:51;1.30;;;1.20;;
9264;SDS011;4669;49.594;10.958;2023-03-14T18:14:55;4.53;;;2.50;;
9264;SDS011;4669;49.594;10.958;2023-03-14T18:19:57;1.63;;;1.50;;
9264;SDS011;4669;49.594;10.958;2023-03-14T18:24:58;1.38;;;1.27;;
9264;SDS011;4669;49.594;10.958;2023-03-14T18:30:02;3.15;;;1.55;;
9264;SDS011;4669;49.594;10.958;2023-03-14T18:35:05;3.15;;;1.65;;
9264;SDS011;4669;49.594;10.958;2023-03-14T18:40:08;5.30;;;1.50;;
9264;SDS011;4669;49.594;10.958;2023-03-14T18:45:14;2.75;;;1.90;;
9264;SDS011;4669;49.594;10.958;2023-03-14T18:50:16;2.22;;;1.83;;
9264;SDS011;4669;49.594;10.958;2023-03-14T18:55:18;2.90;;;1.55;;
9264;SDS011;4669;49.594;10.958;2023-03-14T19:00:22;4.18;;;3.38;;
9264;SDS011;4669;49.594;10.958;2023-03-14T19:05:25;4.28;;;3.13;;
9264;SDS011;4669;49.594;10.958;2023-03-14T19:10:27;3.83;;;2.20;;
9264;SDS011;4669;49.594;10.958;2023-03-14T19:15:33;2.05;;;1.80;;
9264;SDS011;4669;49.594;10.958;2023-03-14T19:20:35;3.00;;;2.00;;
9264;SDS011;4669;49.594;10.958;2023-03-14T19:25:37;2.95;;;2.05;;
9264;SDS011;4669;49.594;10.958;2023-03-14T19:30:42;3.72;;;2.00;;
9264;SDS011;4669;49.594;10.958;2023-03-14T19:35:44;2.85;;;2.55;;
9264;SDS011;4669;49.594;10.958;2023-03-14T19:40:48;2.42;;;1.67;;
9264;SDS011;4669;49.594;10.958;2023-03-14T19:45:54;1.60;;;1.50;;
9264;SDS011;4669;49.594;10.958;2023-03-14T19:50:56;2.40;;;1.50;;
9264;SDS011;4669;49.594;10.958;2023-03-14T19:56:00;2.90;;;1.80;;
9264;SDS011;4669;49.594;10.958;2023-03-14T20:01:04;3.35;;;1.65;;
9264;SDS011;4669;49.594;10.958;2023-03-14T20:06:08;2.72;;;2.03;;
9264;SDS011;4669;49.594;10.958;2023-03-14T20:11:11;2.20;;;2.00;;
9264;SDS011;4669;49.594;10.958;2023-03-14T20:16:15;9.00;;;6.47;;
9264;SDS011;4669;49.594;10.958;2023-03-14T20:21:17;2.78;;;2.30;;
9264;SDS011;4669;49.594;10.958;2023-03-14T20:26:19;3.00;;;2.13;;
9264;SDS011;4669;49.594;10.958;2023-03-14T20:31:22;2.75;;;2.55;;
9264;SDS011;4669;49.594;10.958;2023-03-14T20:36:24;3.88;;;3.50;;
9264;SDS011;4669;49.594;10.958;2023-03-14T20:41:26;3.88;;;3.47;;
9264;SDS011;4669;49.594;10.958;2023-03-14T20:46:30;5.10;;;3.95;;
9264;SDS011;4669;49.594;10.958;2023-03-14T20:51:32;4.35;;;3.30;;
9264;SDS011;4669;49.594;10.958;2023-03-14T20:56:34;3.10;;;2.90;;
9264;SDS011;4669;49.594;10.958;2023-03-14T21:01:37;3.55;;;3.13;;
9264;SDS011;4669;49.594;10.958;2023-03-14T21:06:39;2.72;;;2.53;;
9264;SDS011;4669;49.594;10.958;2023-03-14T21:11:41;1.33;;;1.13;;
9264;SDS011;4669;49.594;10.958;2023-03-14T21:16:47;0.90;;;0.90;;
9264;SDS011;4669;49.594;10.958;2023-03-14T21:21:55;0.85;;;0.80;;
9264;SDS011;4669;49.594;10.958;2023-03-14T21:26:57;0.80;;;0.80;;
9264;SDS011;4669;49.594;10.958;2023-03-14T21:32:00;1.48;;;1.00;;
9264;SDS011;4669;49.594;10.958;2023-03-14T21:37:02;4.70;;;1.63;;
9264;SDS011;4669;49.594;10.958;2023-03-14T21:42:04;4.40;;;1.67;;
9264;SDS011;4669;49.594;10.958;2023-03-14T21:47:09;6.03;;;1.90;;
9264;SDS011;4669;49.594;10.958;2023-03-14T21:52:12;5.63;;;2.00;;
9264;SDS011;4669;49.594;10.958;2023-03-14T21:57:15;6.32;;;1.83;;
9264;SDS011;4669;49.594;10.958;2023-03-14T22:02:18;7.85;;;2.13;;
9264;SDS011;4669;49.594;10.958;2023-03-14T22:07:21;6.43;;;2.42;;
9264;SDS011;4669;49.594;10.958;2023-03-14T22:12:23;7.05;;;2.00;;
9264;SDS011;4669;49.594;10.958;2023-03-14T22:17:26;7.47;;;2.10;;
9264;SDS011;4669;49.594;10.958;2023-03-14T22:22:28;4.43;;;1.88;;
9264;SDS011;4669;49.594;10.958;2023-03-14T22:27:30;4.78;;;2.03;;
9264;SDS011;4669;49.594;10.958;2023-03-14T22:32:33;8.02;;;2.17;;
9264;SDS011;4669;49.594;10.958;2023-03-14T22:37:35;4.50;;;1.75;;
9264;SDS011;4669;49.594;10.958;2023-03-14T22:42:37;5.28;;;1.75;;
9264;SDS011;4669;49.594;10.958;2023-03-14T22:47:41;3.40;;;1.30;;
9264;SDS011;4669;49.594;10.958;2023-03-14T22:52:43;5.18;;;1.67;;
9264;SDS011;4669;49.594;10.958;2023-03-14T22:57:45;6.40;;;2.00;;
